createdAt,value
2019-01-22T00:01:17.778Z,37.62
2019-01-22T00:03:43.708Z,37.56
2019-01-22T00:06:09.620Z,37.56
2019-01-22T00:08:35.622Z,37.60
2019-01-22T00:11:01.520Z,37.66
2019-01-22T00:13:27.419Z,37.62
2019-01-22T00:15:53.732Z,37.61
2019-01-22T00:18:22.641Z,37.61
2019-01-22T00:20:51.776Z,37.61
2019-01-22T00:23:18.091Z,37.65
2019-01-22T00:25:43.989Z,37.66
2019-01-22T00:28:09.894Z,37.64
2019-01-22T00:30:35.785Z,37.61
2019-01-22T00:33:01.686Z,37.56
2019-01-22T00:35:27.577Z,37.58
2019-01-22T00:37:53.517Z,37.55
2019-01-22T00:40:19.466Z,37.67
2019-01-22T00:42:45.359Z,37.61
2019-01-22T00:45:14.430Z,37.57
2019-01-22T00:47:40.337Z,37.58
2019-01-22T00:50:07.832Z,37.56
2019-01-22T00:52:33.763Z,37.57
2019-01-22T00:55:00.176Z,37.62
2019-01-22T00:57:26.485Z,37.61
2019-01-22T00:59:53.257Z,37.60
2019-01-22T01:02:19.632Z,37.57
2019-01-22T01:04:45.538Z,37.60
2019-01-22T01:07:11.813Z,37.63
2019-01-22T01:09:40.373Z,37.61
2019-01-22T01:12:09.027Z,37.59
2019-01-22T01:14:35.331Z,37.51
2019-01-22T01:17:04.016Z,37.48
2019-01-22T01:19:32.976Z,37.38
2019-01-22T01:22:01.912Z,37.36
2019-01-22T01:24:31.181Z,37.34
2019-01-22T01:26:59.923Z,37.39
2019-01-22T01:29:28.976Z,37.38
2019-01-22T01:31:54.913Z,37.35
2019-01-22T01:34:23.360Z,37.30
2019-01-22T01:36:49.301Z,37.36
2019-01-22T01:39:15.195Z,37.35
2019-01-22T01:41:41.155Z,37.36
2019-01-22T01:44:07.048Z,37.36
2019-01-22T01:46:33.651Z,37.36
2019-01-22T01:48:59.562Z,37.31
2019-01-22T01:51:25.844Z,37.33
2019-01-22T01:53:51.732Z,37.36
2019-01-22T01:56:17.629Z,37.36
2019-01-22T01:58:43.890Z,37.37
2019-01-22T02:01:09.794Z,37.37
2019-01-22T02:03:35.698Z,37.34
2019-01-22T02:06:01.592Z,37.32
2019-01-22T02:08:27.493Z,37.32
2019-01-22T02:10:53.398Z,37.36
2019-01-22T02:13:22.379Z,37.41
2019-01-22T02:15:59.520Z,37.36
2019-01-22T02:18:37.220Z,37.36
2019-01-22T02:21:11.197Z,37.31
2019-01-22T02:23:39.008Z,37.30
2019-01-22T02:26:23.692Z,37.37
2019-01-22T02:28:57.493Z,37.35
2019-01-22T02:31:34.583Z,37.36
2019-01-22T02:34:08.368Z,37.30
2019-01-22T02:36:53.283Z,37.30
2019-01-22T02:39:29.491Z,37.28
2019-01-22T02:41:57.299Z,37.29
2019-01-22T02:44:25.119Z,37.33
2019-01-22T02:47:02.147Z,37.33
2019-01-22T02:49:39.482Z,37.30
2019-01-22T02:52:07.282Z,37.29
2019-01-22T02:54:38.066Z,37.28
2019-01-22T02:57:06.268Z,37.33
2019-01-22T02:59:40.606Z,37.32
2019-01-22T03:02:17.411Z,37.29
2019-01-22T03:04:45.210Z,37.27
2019-01-22T03:07:19.123Z,37.30
2019-01-22T03:09:46.917Z,37.30
2019-01-22T03:12:24.124Z,37.36
2019-01-22T03:15:10.345Z,37.32
2019-01-22T03:17:38.187Z,37.29
2019-01-22T03:20:08.995Z,37.29
2019-01-22T03:22:42.619Z,37.20
2019-01-22T03:25:13.428Z,37.25
2019-01-22T03:27:50.269Z,37.24
2019-01-22T03:30:24.060Z,37.22
2019-01-22T03:33:00.956Z,37.18
2019-01-22T03:35:29.123Z,37.25
2019-01-22T03:37:56.920Z,37.23
2019-01-22T03:40:24.733Z,37.15
2019-01-22T03:43:01.413Z,37.07
2019-01-22T03:45:35.451Z,37.03
2019-01-22T03:48:06.395Z,36.98
2019-01-22T03:50:54.259Z,36.99
2019-01-22T03:53:22.054Z,36.93
2019-01-22T03:55:59.262Z,36.99
2019-01-22T03:58:25.205Z,37.00
2019-01-22T04:00:55.184Z,37.00
2019-01-22T04:03:21.844Z,37.01
2019-01-22T04:05:52.744Z,36.97
2019-01-22T04:08:18.990Z,36.97
2019-01-22T04:10:48.905Z,36.99
2019-01-22T04:13:15.154Z,37.04
2019-01-22T04:15:44.064Z,37.02
2019-01-22T04:18:13.007Z,36.92
2019-01-22T04:20:41.649Z,36.95
2019-01-22T04:23:07.558Z,36.95
2019-01-22T04:25:37.666Z,36.96
2019-01-22T04:28:05.495Z,37.02
2019-01-22T04:30:36.502Z,37.00
2019-01-22T04:33:07.866Z,36.93
2019-01-22T04:35:44.985Z,36.93
2019-01-22T04:38:22.120Z,36.95
2019-01-22T04:40:49.915Z,37.00
2019-01-22T04:43:18.074Z,37.07
2019-01-22T04:45:48.904Z,37.07
2019-01-22T04:48:17.070Z,37.02
2019-01-22T04:50:53.167Z,37.01
2019-01-22T04:53:23.919Z,37.02
2019-01-22T04:55:57.770Z,37.08
2019-01-22T04:58:25.908Z,37.15
2019-01-22T05:00:56.569Z,37.14
2019-01-22T05:03:24.383Z,37.10
2019-01-22T05:06:04.507Z,37.08
2019-01-22T05:08:32.305Z,37.07
2019-01-22T05:11:17.329Z,37.02
2019-01-22T05:13:47.958Z,36.95
2019-01-22T05:16:32.373Z,36.97
2019-01-22T05:19:02.968Z,36.92
2019-01-22T05:21:33.741Z,36.95
2019-01-22T05:24:01.547Z,36.89
2019-01-22T05:26:32.182Z,36.95
2019-01-22T05:29:00.280Z,36.89
2019-01-22T05:31:31.541Z,36.96
2019-01-22T05:34:02.194Z,36.92
2019-01-22T05:36:30.458Z,36.92
2019-01-22T05:39:04.367Z,36.95
2019-01-22T05:41:52.717Z,36.99
2019-01-22T05:44:29.221Z,36.90
2019-01-22T05:47:13.788Z,36.91
2019-01-22T05:49:52.767Z,36.93
2019-01-22T05:52:29.208Z,36.87
2019-01-22T05:54:59.786Z,36.89
2019-01-22T05:57:30.256Z,36.89
2019-01-22T06:00:14.953Z,36.81
2019-01-22T06:02:45.487Z,36.85
2019-01-22T06:05:16.412Z,36.92
2019-01-22T06:07:53.147Z,37.00
2019-01-22T06:10:37.559Z,37.01
2019-01-22T06:13:17.405Z,36.95
2019-01-22T06:15:45.213Z,36.96
2019-01-22T06:18:13.064Z,36.95
2019-01-22T06:20:40.860Z,36.92
2019-01-22T06:23:14.549Z,36.89
2019-01-22T06:25:49.678Z,37.06
2019-01-22T06:28:23.232Z,36.92
2019-01-22T06:30:53.794Z,36.89
2019-01-22T06:33:38.261Z,36.92
2019-01-22T06:36:14.872Z,36.91
2019-01-22T06:38:51.488Z,36.87
2019-01-22T06:41:22.306Z,36.85
2019-01-22T06:44:05.252Z,36.90
2019-01-22T06:46:41.987Z,36.83
2019-01-22T06:49:15.608Z,36.82
2019-01-22T06:51:46.410Z,36.80
2019-01-22T06:54:20.432Z,36.81
2019-01-22T06:56:54.384Z,36.72
2019-01-22T06:59:31.279Z,36.69
2019-01-22T07:02:16.063Z,36.70
2019-01-22T07:04:46.691Z,36.71
2019-01-22T07:07:26.868Z,36.70
2019-01-22T07:10:00.322Z,36.79
2019-01-22T07:12:34.174Z,36.82
2019-01-22T07:15:01.979Z,36.74
2019-01-22T07:17:35.958Z,36.79
2019-01-22T07:20:13.183Z,36.69
2019-01-22T07:22:40.936Z,36.59
2019-01-22T07:25:11.508Z,36.62
2019-01-22T07:27:56.010Z,36.51
2019-01-22T07:30:39.008Z,36.55
2019-01-22T07:33:06.865Z,36.41
2019-01-22T07:35:37.411Z,36.40
2019-01-22T07:38:07.985Z,36.38
2019-01-22T07:40:36.215Z,36.34
2019-01-22T07:43:04.097Z,36.33
2019-01-22T07:45:48.704Z,36.35
2019-01-22T07:48:16.489Z,36.48
2019-01-22T07:50:44.294Z,36.38
2019-01-22T07:53:12.105Z,36.28
2019-01-22T07:55:43.121Z,36.29
2019-01-22T07:58:10.928Z,36.38
2019-01-22T08:00:52.980Z,36.38
2019-01-22T08:03:48.109Z,36.47
2019-01-22T08:06:15.320Z,36.48
2019-01-22T08:08:43.302Z,36.53
2019-01-22T08:11:16.864Z,36.54
2019-01-22T08:13:51.817Z,36.54
2019-01-22T08:16:36.387Z,36.46
2019-01-22T08:19:10.427Z,36.49
2019-01-22T08:21:38.236Z,36.53
2019-01-22T08:24:12.242Z,36.57
2019-01-22T08:26:55.232Z,36.53
2019-01-22T08:29:29.138Z,36.53
2019-01-22T08:32:14.113Z,36.53
2019-01-22T08:34:44.669Z,36.50
2019-01-22T08:37:21.423Z,36.50
2019-01-22T08:39:52.005Z,36.71
2019-01-22T08:42:22.623Z,36.61
2019-01-22T08:44:53.563Z,36.61
2019-01-22T08:47:24.157Z,36.56
2019-01-22T08:50:03.936Z,36.68
2019-01-22T08:52:34.520Z,36.61
2019-01-22T08:55:07.991Z,36.65
2019-01-22T08:57:37.570Z,36.72
2019-01-22T09:00:16.828Z,36.71
2019-01-22T09:02:43.332Z,36.70
2019-01-22T09:05:29.718Z,36.69
2019-01-22T09:08:01.015Z,36.74
2019-01-22T09:10:31.593Z,36.63
2019-01-22T09:13:05.443Z,36.64
2019-01-22T09:15:33.237Z,36.62
2019-01-22T09:18:03.886Z,36.63
2019-01-22T09:20:37.979Z,36.59
2019-01-22T09:23:08.853Z,36.64
2019-01-22T09:25:36.654Z,36.63
2019-01-22T09:28:07.228Z,36.72
2019-01-22T09:30:35.073Z,36.65
2019-01-22T09:33:15.158Z,36.62
2019-01-22T09:35:49.052Z,36.64
2019-01-22T09:38:15.290Z,36.66
2019-01-22T09:40:41.221Z,36.66
2019-01-22T09:43:07.122Z,36.66
2019-01-22T09:45:33.068Z,36.63
2019-01-22T09:47:58.975Z,36.58
2019-01-22T09:50:24.872Z,36.53
2019-01-22T09:52:53.045Z,36.57
2019-01-22T09:55:22.559Z,36.61
2019-01-22T09:57:50.087Z,36.57
2019-01-22T10:00:17.315Z,36.61
2019-01-22T10:02:46.244Z,36.64
2019-01-22T10:05:12.128Z,36.61
2019-01-22T10:07:41.169Z,36.59
2019-01-22T10:10:11.767Z,36.56
2019-01-22T10:12:40.814Z,36.63
2019-01-22T10:15:11.643Z,36.61
2019-01-22T10:17:40.293Z,36.66
2019-01-22T10:20:11.133Z,36.64
2019-01-22T10:22:37.069Z,36.60
2019-01-22T10:25:03.920Z,36.62
2019-01-22T10:27:29.860Z,36.53
2019-01-22T10:29:55.777Z,36.58
2019-01-22T10:32:24.690Z,36.57
2019-01-22T10:34:51.727Z,36.59
2019-01-22T10:37:18.191Z,36.59
2019-01-22T10:39:44.093Z,36.58
2019-01-22T10:42:10.014Z,36.55
2019-01-22T10:44:35.927Z,36.56
2019-01-22T10:47:01.833Z,36.55
2019-01-22T10:49:27.738Z,36.61
2019-01-22T10:51:53.645Z,36.62
2019-01-22T10:54:19.539Z,36.69
2019-01-22T10:56:45.846Z,36.60
2019-01-22T10:59:11.793Z,36.62
2019-01-22T11:01:38.078Z,36.51
2019-01-22T11:04:04.079Z,36.62
2019-01-22T11:06:34.287Z,36.62
2019-01-22T11:09:04.354Z,36.56
2019-01-22T11:11:33.814Z,36.56
2019-01-22T11:14:03.289Z,36.63
2019-01-22T11:16:32.385Z,36.78
2019-01-22T11:18:59.408Z,37.11
2019-01-22T11:21:26.428Z,37.43
2019-01-22T11:23:56.051Z,37.21
2019-01-22T11:26:26.001Z,37.13
2019-01-22T11:28:54.726Z,37.07
2019-01-22T11:31:22.010Z,37.10
2019-01-22T11:33:49.506Z,37.03
2019-01-22T11:36:16.356Z,37.15
2019-01-22T11:38:43.515Z,37.10
2019-01-22T11:41:09.748Z,37.20
2019-01-22T11:43:35.707Z,37.20
2019-01-22T11:46:01.604Z,37.07
2019-01-22T11:48:27.511Z,37.09
2019-01-22T11:50:56.459Z,37.03
2019-01-22T11:53:25.742Z,36.94
2019-01-22T11:55:51.677Z,36.98
2019-01-22T11:58:17.565Z,36.93
2019-01-22T12:00:48.144Z,37.03
2019-01-22T12:03:14.031Z,36.89
2019-01-22T12:05:39.937Z,37.01
2019-01-22T12:08:05.847Z,37.07
2019-01-22T12:10:31.749Z,37.15
2019-01-22T12:12:57.663Z,37.08
2019-01-22T12:15:26.360Z,37.13
2019-01-22T12:17:52.241Z,37.21
2019-01-22T12:20:20.118Z,37.36
2019-01-22T12:22:46.017Z,37.54
2019-01-22T12:25:12.076Z,37.17
2019-01-22T12:27:38.312Z,36.78
2019-01-22T12:30:06.122Z,36.82
2019-01-22T12:32:32.461Z,36.94
2019-01-22T12:34:58.365Z,37.76
2019-01-22T12:37:24.275Z,37.32
2019-01-22T12:39:52.963Z,37.13
2019-01-22T12:42:18.873Z,37.20
2019-01-22T12:44:44.879Z,37.41
2019-01-22T12:47:11.107Z,37.36
2019-01-22T12:49:36.996Z,37.43
2019-01-22T12:52:03.539Z,37.65
2019-01-22T12:54:29.737Z,37.67
2019-01-22T12:56:55.653Z,37.56
2019-01-22T12:59:24.392Z,37.33
2019-01-22T13:01:50.293Z,37.53
2019-01-22T13:04:19.544Z,37.25
2019-01-22T13:06:45.842Z,38.68
2019-01-22T13:09:14.861Z,37.87
2019-01-22T13:11:40.762Z,37.60
2019-01-22T13:14:06.649Z,37.69
2019-01-22T13:16:32.550Z,37.94
2019-01-22T13:18:58.453Z,38.08
2019-01-22T13:21:24.371Z,38.76
2019-01-22T13:23:52.595Z,38.21
2019-01-22T13:26:18.354Z,38.37
2019-01-22T13:28:44.258Z,38.55
2019-01-22T13:31:10.169Z,38.05
2019-01-22T13:33:36.116Z,38.27
2019-01-22T13:36:02.324Z,38.21
2019-01-22T13:38:28.223Z,38.16
2019-01-22T13:40:54.140Z,38.00
2019-01-22T13:43:20.028Z,38.07
2019-01-22T13:45:45.975Z,37.89
2019-01-22T13:48:12.689Z,37.89
2019-01-22T13:50:38.592Z,37.84
2019-01-22T13:53:04.503Z,37.74
2019-01-22T13:55:31.437Z,37.70
2019-01-22T13:58:00.346Z,37.76
2019-01-22T14:00:29.395Z,37.68
2019-01-22T14:02:55.881Z,37.64
2019-01-22T14:05:21.863Z,37.62
2019-01-22T14:07:47.817Z,37.69
2019-01-22T14:10:14.027Z,37.59
2019-01-22T14:12:42.763Z,37.67
2019-01-22T14:15:16.389Z,37.53
2019-01-22T14:17:42.327Z,37.53
2019-01-22T14:20:09.922Z,37.53
2019-01-22T14:22:35.890Z,37.49
2019-01-22T14:25:01.772Z,37.44
2019-01-22T14:27:27.674Z,37.56
2019-01-22T14:29:53.939Z,37.53
2019-01-22T14:32:20.180Z,37.50
2019-01-22T14:34:46.083Z,37.56
2019-01-22T14:37:11.992Z,37.51
2019-01-22T14:39:37.888Z,37.48
2019-01-22T14:42:03.795Z,37.44
2019-01-22T14:44:29.701Z,37.43
2019-01-22T14:46:55.650Z,37.44
2019-01-22T14:49:24.361Z,37.45
2019-01-22T14:51:53.237Z,37.54
2019-01-22T14:54:19.182Z,37.50
2019-01-22T14:56:45.076Z,37.51
2019-01-22T14:59:13.838Z,37.54
2019-01-22T15:01:42.963Z,37.55
2019-01-22T15:04:08.962Z,37.68
2019-01-22T15:06:34.873Z,37.70
2019-01-22T15:09:00.758Z,37.53
2019-01-22T15:11:26.663Z,37.64
2019-01-22T15:13:52.567Z,37.58
2019-01-22T15:16:18.467Z,37.69
2019-01-22T15:18:44.382Z,37.67
2019-01-22T15:21:10.321Z,37.72
2019-01-22T15:23:39.210Z,37.66
2019-01-22T15:26:05.181Z,37.56
2019-01-22T15:28:34.121Z,37.64
2019-01-22T15:31:03.063Z,37.68
2019-01-22T15:33:32.041Z,37.66
2019-01-22T15:35:57.964Z,37.51
2019-01-22T15:38:23.860Z,37.51
2019-01-22T15:40:49.766Z,37.52
2019-01-22T15:43:15.679Z,37.50
2019-01-22T15:45:41.585Z,37.52
2019-01-22T15:48:07.498Z,37.52
2019-01-22T15:50:33.400Z,37.51
2019-01-22T15:52:59.636Z,37.45
2019-01-22T15:55:27.439Z,37.54
2019-01-22T15:57:53.302Z,37.45
2019-01-22T16:00:20.308Z,37.51
2019-01-22T16:02:46.200Z,37.49
2019-01-22T16:05:12.111Z,37.57
2019-01-22T16:07:40.770Z,37.46
2019-01-22T16:10:10.384Z,37.44
2019-01-22T16:12:36.318Z,37.96
2019-01-22T16:15:03.665Z,37.32
2019-01-22T16:17:32.376Z,37.41
2019-01-22T16:19:58.328Z,37.45
2019-01-22T16:22:24.212Z,37.44
2019-01-22T16:24:50.118Z,37.47
2019-01-22T16:27:18.776Z,37.48
2019-01-22T16:29:45.038Z,37.45
2019-01-22T16:32:13.862Z,37.46
2019-01-22T16:34:42.881Z,37.50
2019-01-22T16:37:08.786Z,37.43
2019-01-22T16:39:35.065Z,38.18
2019-01-22T16:42:00.955Z,37.49
2019-01-22T16:44:26.855Z,37.59
2019-01-22T16:46:52.790Z,37.54
2019-01-22T16:49:21.786Z,37.50
2019-01-22T16:51:53.489Z,37.48
2019-01-22T16:54:19.391Z,37.57
2019-01-22T16:56:48.579Z,37.57
2019-01-22T16:59:14.469Z,37.62
2019-01-22T17:01:40.425Z,37.52
2019-01-22T17:04:09.439Z,37.67
2019-01-22T17:06:38.526Z,37.55
2019-01-22T17:09:05.983Z,37.57
2019-01-22T17:11:31.988Z,37.52
2019-01-22T17:14:01.052Z,37.51
2019-01-22T17:16:29.984Z,37.53
2019-01-22T17:18:58.685Z,37.56
2019-01-22T17:21:27.651Z,37.55
2019-01-22T17:23:56.615Z,37.47
2019-01-22T17:26:25.518Z,37.55
2019-01-22T17:28:57.492Z,37.54
2019-01-22T17:31:25.497Z,37.59
2019-01-22T17:33:55.920Z,37.50
2019-01-22T17:36:21.868Z,37.47
2019-01-22T17:38:47.772Z,37.54
2019-01-22T17:41:13.704Z,37.48
2019-01-22T17:43:42.505Z,37.43
2019-01-22T17:46:08.411Z,37.69
2019-01-22T17:48:34.539Z,37.46
2019-01-22T17:51:00.492Z,37.42
2019-01-22T17:53:26.396Z,37.46
2019-01-22T17:55:52.339Z,37.49
2019-01-22T17:58:18.267Z,37.59
2019-01-22T18:00:47.017Z,37.51
2019-01-22T18:03:12.930Z,37.41
2019-01-22T18:05:38.833Z,37.44
2019-01-22T18:08:04.791Z,37.48
2019-01-22T18:10:33.394Z,37.48
2019-01-22T18:12:59.321Z,37.41
2019-01-22T18:15:28.366Z,37.49
2019-01-22T18:17:57.309Z,37.40
2019-01-22T18:20:24.515Z,37.41
2019-01-22T18:22:50.488Z,37.36
2019-01-22T18:25:16.382Z,37.36
2019-01-22T18:27:45.929Z,37.36
2019-01-22T18:30:12.914Z,37.32
2019-01-22T18:32:38.811Z,37.27
2019-01-22T18:35:12.293Z,37.28
2019-01-22T18:37:38.203Z,37.25
2019-01-22T18:40:11.772Z,37.28
2019-01-22T18:42:38.619Z,37.22
2019-01-22T18:45:06.026Z,37.23
2019-01-22T18:47:31.949Z,37.22
2019-01-22T18:49:57.821Z,37.28
2019-01-22T18:52:26.972Z,37.17
2019-01-22T18:54:55.922Z,37.20
2019-01-22T18:57:27.395Z,37.15
2019-01-22T18:59:52.312Z,37.13
2019-01-22T19:02:18.214Z,37.15
2019-01-22T19:04:44.123Z,37.10
2019-01-22T19:07:10.469Z,37.11
2019-01-22T19:09:39.430Z,37.44
2019-01-22T19:12:05.770Z,37.22
2019-01-22T19:14:33.626Z,37.21
2019-01-22T19:17:02.547Z,37.10
2019-01-22T19:19:29.791Z,37.13
2019-01-22T19:21:55.622Z,37.02
2019-01-22T19:24:27.517Z,37.20
2019-01-22T19:26:53.422Z,37.04
2019-01-22T19:29:19.443Z,37.10
2019-01-22T19:31:45.750Z,36.93
2019-01-22T19:34:11.703Z,36.95
2019-01-22T19:36:37.608Z,36.98
2019-01-22T19:39:04.420Z,37.00
2019-01-22T19:41:30.727Z,36.91
2019-01-22T19:43:56.622Z,37.12
2019-01-22T19:46:22.527Z,36.73
2019-01-22T19:48:48.524Z,36.76
2019-01-22T19:51:17.583Z,36.61
2019-01-22T19:53:43.498Z,36.64
2019-01-22T19:56:09.385Z,36.69
2019-01-22T19:58:35.295Z,36.51
2019-01-22T20:01:01.200Z,36.56
2019-01-22T20:03:27.118Z,36.52
2019-01-22T20:05:53.163Z,36.46
2019-01-22T20:08:19.101Z,36.48
2019-01-22T20:10:44.987Z,36.52
2019-01-22T20:13:10.904Z,36.56
2019-01-22T20:15:37.232Z,36.54
2019-01-22T20:18:06.151Z,36.46
2019-01-22T20:20:32.099Z,36.54
2019-01-22T20:22:58.008Z,36.44
2019-01-22T20:25:24.120Z,36.52
2019-01-22T20:27:50.030Z,36.56
2019-01-22T20:30:17.883Z,36.54
2019-01-22T20:32:43.849Z,36.52
2019-01-22T20:35:09.755Z,36.54
2019-01-22T20:37:35.651Z,36.52
2019-01-22T20:40:06.487Z,36.52
2019-01-22T20:42:32.431Z,36.61
2019-01-22T20:45:01.088Z,36.51
2019-01-22T20:47:30.179Z,36.56
2019-01-22T20:49:56.494Z,36.55
2019-01-22T20:52:22.423Z,36.52
2019-01-22T20:54:48.779Z,36.53
2019-01-22T20:57:14.726Z,36.57
2019-01-22T20:59:41.095Z,36.54
2019-01-22T21:02:10.523Z,36.54
2019-01-22T21:04:36.430Z,36.53
2019-01-22T21:07:02.366Z,36.56
2019-01-22T21:09:28.294Z,36.62
2019-01-22T21:11:54.201Z,36.61
2019-01-22T21:14:20.100Z,36.71
2019-01-22T21:16:46.005Z,36.73
2019-01-22T21:19:11.901Z,36.71
2019-01-22T21:21:37.805Z,36.70
2019-01-22T21:24:03.701Z,36.78
2019-01-22T21:26:29.600Z,36.71
2019-01-22T21:28:55.604Z,36.76
2019-01-22T21:31:24.372Z,36.82
2019-01-22T21:33:50.273Z,36.69
2019-01-22T21:36:16.935Z,36.67
2019-01-22T21:38:42.815Z,36.66
2019-01-22T21:41:12.023Z,36.74
2019-01-22T21:43:38.259Z,36.65
2019-01-22T21:46:04.531Z,36.66
2019-01-22T21:48:30.571Z,36.64
2019-01-22T21:50:56.635Z,36.75
2019-01-22T21:53:23.127Z,36.81
2019-01-22T21:55:49.389Z,36.76
2019-01-22T21:58:15.289Z,36.62
2019-01-22T22:00:41.219Z,36.90
2019-01-22T22:03:09.958Z,36.82
2019-01-22T22:05:35.998Z,36.80
2019-01-22T22:08:02.339Z,36.61
2019-01-22T22:10:28.418Z,36.60
2019-01-22T22:12:54.851Z,36.56
2019-01-22T22:15:21.873Z,36.59
2019-01-22T22:17:47.773Z,36.54
2019-01-22T22:20:14.700Z,36.49
2019-01-22T22:22:41.189Z,36.41
2019-01-22T22:25:08.505Z,36.45
2019-01-22T22:27:35.382Z,36.46
2019-01-22T22:30:01.363Z,36.35
2019-01-22T22:32:27.460Z,36.51
2019-01-22T22:34:54.196Z,36.43
2019-01-22T22:37:20.140Z,36.40
2019-01-22T22:39:46.080Z,36.43
2019-01-22T22:42:12.163Z,36.41
2019-01-22T22:44:38.379Z,36.25
2019-01-22T22:47:04.440Z,36.35
2019-01-22T22:49:30.331Z,36.38
2019-01-22T22:51:56.267Z,36.41
2019-01-22T22:54:22.921Z,36.43
2019-01-22T22:56:54.160Z,36.33
2019-01-22T22:59:20.770Z,36.38
2019-01-22T23:01:47.319Z,36.25
2019-01-22T23:04:13.190Z,36.36
2019-01-22T23:06:39.090Z,36.30
2019-01-22T23:09:07.678Z,36.25
2019-01-22T23:11:33.581Z,36.38
2019-01-22T23:14:02.539Z,36.41
2019-01-22T23:16:33.416Z,36.30
2019-01-22T23:19:02.782Z,36.35
2019-01-22T23:21:28.689Z,36.38
2019-01-22T23:23:54.584Z,36.46
2019-01-22T23:26:22.893Z,36.38
2019-01-22T23:28:51.832Z,36.42
2019-01-22T23:31:23.888Z,36.38
2019-01-22T23:33:49.818Z,36.47
2019-01-22T23:36:15.718Z,36.45
2019-01-22T23:38:41.668Z,36.48
2019-01-22T23:41:07.901Z,36.42
2019-01-22T23:43:36.946Z,36.41
2019-01-22T23:46:02.843Z,36.34
2019-01-22T23:48:28.747Z,36.29
2019-01-22T23:50:57.425Z,36.28
2019-01-22T23:53:26.532Z,36.29
2019-01-22T23:55:55.505Z,36.48
2019-01-22T23:58:24.595Z,36.32
